This is the latest recevied weather packets stored in our database for station/object N4PWG. If no packets are shown the sender has not sent any weather packets the latest 10 day(s).
| Time | Temp. | Humidity | Pressure | Rain* | Wind** | Luminosity | Snow |
|---|---|---|---|---|---|---|---|
| 1778087293 | 13.89° C | 85% | 1032.2 hPa | 0 mm | - | 325 W/m² | - |
| 1778086988 | 13.89° C | 83% | 1032.2 hPa | 0 mm | - | 271 W/m² | - |
| 1778086688 | 13.33° C | 86% | 1032.2 hPa | 0 mm | - | 340 W/m² | - |
| 1778086385 | 12.78° C | 88% | 1032.3 hPa | 0 mm | - | 268 W/m² | - |
| 1778086081 | 12.78° C | 87% | 1032.3 hPa | 0 mm | - | 163 W/m² | - |
| 1778085778 | 12.78° C | 86% | 1032.4 hPa | 0 mm | - | 166 W/m² | - |
| 1778085475 | 13.33° C | 84% | 1032.2 hPa | 0 mm | - | 189 W/m² | - |
| 1778085170 | 12.78° C | 85% | 1031.9 hPa | 0 mm | - | 215 W/m² | - |
| 1778084866 | 12.78° C | 87% | 1031.8 hPa | 0 mm | - | 247 W/m² | - |
| 1778084564 | 12.78° C | 87% | 1032 hPa | 0 mm | - | 318 W/m² | - |
| 1778084256 | 12.78° C | 87% | 1031.8 hPa | 0 mm | - | 214 W/m² | - |
| 1778083953 | 13.33° C | 85% | 1031.7 hPa | 0 mm | - | 199 W/m² | - |
| 1778083650 | 13.33° C | 84% | 1031.7 hPa | 0 mm | - | 314 W/m² | - |
| 1778083346 | 12.78° C | 89% | 1031.8 hPa | 0 mm | - | 439 W/m² | - |
| 1778083045 | 12.78° C | 86% | 1031.8 hPa | 0 mm | - | 310 W/m² | - |
| 1778082741 | 12.78° C | 85% | 1032.1 hPa | 0 mm | - | 337 W/m² | - |
| 1778081603 | 11.67° C | 89% | 1032.3 hPa | 0 mm | - | 260 W/m² | - |
| 1778081300 | 11.11° C | 88% | 1032.5 hPa | 0 mm | - | 206 W/m² | - |
| 1778080998 | 11.67° C | 89% | 1032.3 hPa | 0 mm | - | 196 W/m² | - |
| 1778080696 | 11.11° C | 89% | 1032.3 hPa | 0 mm | - | 154 W/m² | - |
| 1778080393 | 11.67° C | 89% | 1032.5 hPa | 0 mm | - | 156 W/m² | - |
| 1778080090 | 11.11° C | 89% | 1032.4 hPa | 0 mm | - | 187 W/m² | - |
| 1778079787 | 11.11° C | 89% | 1032.3 hPa | 0 mm | - | 137 W/m² | - |
| 1778079483 | 11.67° C | 88% | 1032 hPa | 0 mm | - | 155 W/m² | - |
| 1778079180 | 11.67° C | 89% | 1031.9 hPa | 0 mm | - | 198 W/m² | - |
* Rain latest hour (hover to see other rain measurements)
** Current wind speed in m/s (hover to see current wind gust speed)